Time;durP1;ratioP1;P1;durP2;ratioP2;P2;SDS_P1;SDS_P2;PMS_P1;PMS_P2;Temp;Humidity;BMP_temperature;BMP_pressure;BME280_temperature;BME280_humidity;BME280_pressure;Samples;Min_cycle;Max_cycle;Signal;HPM_P1;HPM_P2
2021/09/29 00:00:08;;;;;;;23.10;10.20;;;;;;;8.40;61.80;99689.31;113127;1197;94978;-70
2021/09/29 00:02:55;;;;;;;21.10;9.10;;;;;;;8.37;61.90;99692.13;113114;1196;98293;-70
2021/09/29 00:05:23;;;;;;;23.10;9.50;;;;;;;8.36;61.87;99689.37;113107;1195;112061;-70
2021/09/29 00:07:51;;;;;;;23.20;9.40;;;;;;;8.36;61.92;99688.67;113045;1196;97644;-68
2021/09/29 00:10:19;;;;;;;24.40;10.30;;;;;;;8.33;61.94;99688.14;113119;1195;107991;-69
2021/09/29 00:12:47;;;;;;;21.40;9.00;;;;;;;8.30;61.89;99686.54;113665;1195;97537;-68
2021/09/29 00:15:19;;;;;;;23.30;8.90;;;;;;;8.28;61.95;99680.63;113065;1195;97637;-68
2021/09/29 00:17:48;;;;;;;22.30;9.30;;;;;;;8.25;61.98;99681.64;113061;1195;111837;-70
2021/09/29 00:20:17;;;;;;;26.70;10.20;;;;;;;8.22;62.00;99679.52;113214;1195;97566;-69
2021/09/29 00:22:45;;;;;;;23.20;9.60;;;;;;;8.19;62.20;99679.15;113084;1197;107373;-69
2021/09/29 00:25:15;;;;;;;23.10;9.60;;;;;;;8.16;62.17;99678.19;113051;1196;97574;-70
2021/09/29 00:27:44;;;;;;;22.00;8.80;;;;;;;8.15;62.31;99674.59;113097;1197;97676;-70
2021/09/29 00:30:13;;;;;;;21.60;9.20;;;;;;;8.14;62.28;99673.41;112787;1197;111222;-69
2021/09/29 00:32:42;;;;;;;23.40;10.30;;;;;;;8.11;62.25;99673.91;113119;1195;96346;-72
2021/09/29 00:35:13;;;;;;;21.70;9.40;;;;;;;8.10;62.46;99681.40;112949;1195;108146;-70
2021/09/29 00:37:41;;;;;;;24.00;10.50;;;;;;;8.08;62.53;99681.67;112992;1196;97533;-70
2021/09/29 00:40:12;;;;;;;20.90;8.50;;;;;;;8.07;62.40;99680.64;112943;1196;97551;-69
2021/09/29 00:42:41;;;;;;;22.50;9.80;;;;;;;8.05;62.45;99680.92;113251;1195;111313;-69
2021/09/29 00:45:09;;;;;;;22.80;9.50;;;;;;;8.03;62.56;99681.02;113244;1195;96136;-69
2021/09/29 00:47:37;;;;;;;22.00;9.90;;;;;;;8.01;62.58;99682.00;113127;1195;107552;-69
2021/09/29 00:50:08;;;;;;;21.80;9.20;;;;;;;8.00;62.55;99684.87;113237;1196;96927;-69
2021/09/29 00:52:41;;;;;;;25.90;10.70;;;;;;;7.99;62.76;99682.15;113197;1195;97595;-68
2021/09/29 00:55:13;;;;;;;20.60;7.40;;;;;;;7.97;62.80;99685.05;113131;1195;110781;-69
2021/09/29 00:57:43;;;;;;;22.60;9.00;;;;;;;7.96;62.76;99682.12;113178;1195;97656;-69
2021/09/29 01:00:14;;;;;;;21.30;8.70;;;;;;;7.94;62.85;99681.32;113144;1197;107608;-70
2021/09/29 01:02:44;;;;;;;22.50;9.10;;;;;;;7.94;62.79;99675.86;113112;1195;95109;-69
2021/09/29 01:05:14;;;;;;;22.20;9.10;;;;;;;7.93;62.74;99676.46;113003;1195;96207;-69
2021/09/29 01:07:49;;;;;;;22.20;9.20;;;;;;;7.92;62.78;99670.85;112906;1196;111212;-72
2021/09/29 01:10:41;;;;;;;21.00;9.40;;;;;;;7.90;62.90;99670.39;112855;1196;97656;-66
2021/09/29 01:13:22;;;;;;;23.20;9.50;;;;;;;7.87;63.02;99667.73;112988;1196;108057;-69
2021/09/29 01:15:55;;;;;;;24.70;10.30;;;;;;;7.84;62.89;99665.23;113103;1195;97760;-69
2021/09/29 01:18:25;;;;;;;23.00;9.50;;;;;;;7.82;62.97;99664.63;113179;1196;97592;-71
2021/09/29 01:21:01;;;;;;;24.90;10.50;;;;;;;7.80;63.01;99661.53;112781;1196;111191;-71
2021/09/29 01:23:49;;;;;;;24.20;10.10;;;;;;;7.79;62.90;99661.27;113161;1195;96073;-72
2021/09/29 01:26:25;;;;;;;23.60;10.50;;;;;;;7.76;63.01;99659.29;113113;1195;107607;-72
2021/09/29 01:29:15;;;;;;;22.70;9.60;;;;;;;7.73;63.06;99652.05;113079;1196;97713;-72
2021/09/29 01:31:45;;;;;;;22.40;9.30;;;;;;;7.67;63.06;99650.93;113126;1196;97626;-69
2021/09/29 01:34:13;;;;;;;20.40;9.20;;;;;;;7.64;63.26;99651.26;113142;1196;112142;-71
2021/09/29 01:36:43;;;;;;;20.60;9.10;;;;;;;7.59;63.07;99652.22;113163;1197;98501;-71
2021/09/29 01:39:13;;;;;;;24.50;9.60;;;;;;;7.50;63.26;99656.55;113130;1195;107982;-69
2021/09/29 01:41:41;;;;;;;22.60;9.30;;;;;;;7.50;63.45;99663.06;113059;1196;97583;-67
2021/09/29 01:44:09;;;;;;;20.60;9.50;;;;;;;7.48;63.32;99657.73;113122;1196;96469;-70
2021/09/29 01:46:38;;;;;;;23.70;9.40;;;;;;;7.46;63.27;99657.42;113105;1195;111824;-69
2021/09/29 01:49:17;;;;;;;22.00;9.90;;;;;;;7.44;63.43;99650.65;113107;1195;97681;-69
2021/09/29 01:51:50;;;;;;;22.40;9.10;;;;;;;7.44;63.71;99647.64;113082;1195;108010;-69
2021/09/29 01:54:20;;;;;;;22.70;10.20;;;;;;;7.45;63.50;99647.27;113074;1196;97938;-70
2021/09/29 01:56:49;;;;;;;23.70;10.20;;;;;;;7.44;63.41;99649.27;112874;1196;96928;-69
2021/09/29 01:59:18;;;;;;;23.60;10.70;;;;;;;7.42;63.43;99646.34;113204;1195;111233;-68
2021/09/29 02:01:45;;;;;;;21.80;9.20;;;;;;;7.41;63.48;99643.59;113091;1196;97677;-69
2021/09/29 02:04:18;;;;;;;22.50;8.90;;;;;;;7.39;63.56;99641.40;113054;1196;108160;-68
2021/09/29 02:06:51;;;;;;;23.90;10.30;;;;;;;7.36;63.66;99638.00;113093;1195;97675;-69
2021/09/29 02:09:20;;;;;;;;;;;;;;;7.34;63.73;99631.75;113079;1196;95141;-68
2021/09/29 02:11:48;;;;;;;21.60;9.20;;;;;;;7.30;63.87;99632.84;113073;1195;111212;-68
2021/09/29 02:14:19;;;;;;;23.20;9.70;;;;;;;7.27;63.77;99631.21;113083;1196;97621;-69
2021/09/29 02:16:50;;;;;;;23.40;10.50;;;;;;;7.25;63.78;99633.27;113064;1195;108602;-67
2021/09/29 02:19:18;;;;;;;23.60;10.00;;;;;;;7.26;63.84;99633.05;113067;1195;95057;-69
2021/09/29 02:21:46;;;;;;;24.40;9.90;;;;;;;7.26;63.98;99631.28;113152;1196;97663;-69
2021/09/29 02:24:15;;;;;;;22.30;9.20;;;;;;;7.26;64.03;99634.25;113225;1196;111800;-69
2021/09/29 02:26:43;;;;;;;23.10;9.40;;;;;;;7.25;64.00;99634.83;113115;1195;97559;-70
2021/09/29 02:29:13;;;;;;;24.50;10.40;;;;;;;7.22;63.83;99630.59;113001;1195;108145;-74
2021/09/29 02:31:43;;;;;;;23.60;10.00;;;;;;;7.21;64.19;99635.05;113101;1196;97601;-70
2021/09/29 02:34:11;;;;;;;27.20;10.40;;;;;;;7.20;64.06;99631.73;113134;1195;97601;-69
2021/09/29 02:36:40;;;;;;;22.80;10.30;;;;;;;7.19;64.13;99629.70;113092;1196;111761;-70
2021/09/29 02:39:08;;;;;;;23.80;11.20;;;;;;;7.17;64.23;99621.48;113131;1197;97570;-68
2021/09/29 02:41:36;;;;;;;26.10;9.60;;;;;;;7.16;64.32;99618.86;113113;1195;107609;-69
2021/09/29 02:44:08;;;;;;;23.80;11.00;;;;;;;7.11;64.38;99622.84;112809;1196;97510;-70
2021/09/29 02:46:38;;;;;;;21.40;9.30;;;;;;;7.07;64.15;99622.34;113068;1196;97590;-70
2021/09/29 02:49:07;;;;;;;23.10;10.60;;;;;;;7.07;64.43;99618.48;112838;1196;111777;-69
2021/09/29 02:51:35;;;;;;;24.30;11.10;;;;;;;7.05;64.58;99617.83;113099;1195;97513;-69
2021/09/29 02:54:04;;;;;;;26.20;10.70;;;;;;;7.02;64.43;99618.70;113078;1196;108074;-69
2021/09/29 02:56:33;;;;;;;23.30;11.00;;;;;;;7.01;64.69;99617.50;113137;1195;97514;-68
2021/09/29 02:59:01;;;;;;;22.70;11.00;;;;;;;7.04;64.51;99621.45;113138;1195;95050;-69
2021/09/29 03:01:30;;;;;;;22.40;10.30;;;;;;;7.05;64.66;99621.20;113165;1195;111718;-69
2021/09/29 03:03:59;;;;;;;26.60;11.00;;;;;;;7.06;64.58;99620.82;112881;1196;95055;-69
2021/09/29 03:06:27;;;;;;;25.20;11.40;;;;;;;7.07;64.43;99616.87;113131;1196;108125;-69
2021/09/29 03:08:55;;;;;;;25.90;11.50;;;;;;;7.07;64.88;99614.05;113070;1196;97543;-70
2021/09/29 03:11:23;;;;;;;26.40;10.70;;;;;;;7.07;64.67;99617.91;113188;1195;97731;-68
2021/09/29 03:13:52;;;;;;;21.30;9.50;;;;;;;7.04;64.85;99611.02;113182;1197;111671;-70
2021/09/29 03:16:21;;;;;;;23.40;10.40;;;;;;;7.04;64.90;99611.20;113219;1195;97524;-70
2021/09/29 03:18:49;;;;;;;27.20;11.40;;;;;;;7.04;65.06;99613.66;113163;1196;108101;-70
2021/09/29 03:21:18;;;;;;;21.90;10.50;;;;;;;7.06;64.97;99611.82;113208;1196;97715;-69
2021/09/29 03:23:46;;;;;;;24.40;11.50;;;;;;;7.05;65.10;99613.25;113201;1195;95051;-70
2021/09/29 03:26:15;;;;;;;20.60;9.60;;;;;;;7.04;64.90;99611.02;113028;1195;111679;-71
2021/09/29 03:28:42;;;;;;;24.40;10.50;;;;;;;7.03;65.08;99600.48;112959;1196;97702;-70
2021/09/29 03:31:13;;;;;;;23.70;10.40;;;;;;;7.02;65.10;99599.64;112817;1196;107026;-68
2021/09/29 03:33:42;;;;;;;27.90;11.60;;;;;;;7.02;65.22;99598.25;112871;1196;95169;-68
2021/09/29 03:36:10;;;;;;;24.40;10.80;;;;;;;7.03;65.36;99598.21;112873;1196;97658;-70
2021/09/29 03:38:38;;;;;;;26.80;11.30;;;;;;;7.01;65.12;99601.44;112875;1196;111113;-70
2021/09/29 03:41:07;;;;;;;23.00;10.50;;;;;;;7.02;65.31;99598.77;113124;1196;97706;-68
2021/09/29 03:43:34;;;;;;;23.40;10.90;;;;;;;7.02;65.18;99597.20;112887;1196;107469;-67
2021/09/29 03:46:03;;;;;;;24.60;11.50;;;;;;;7.00;65.35;99595.14;113152;1196;95003;-68
2021/09/29 03:48:32;;;;;;;27.70;12.20;;;;;;;6.98;65.43;99602.28;113104;1196;95831;-71
2021/09/29 03:51:00;;;;;;;23.70;10.60;;;;;;;6.99;65.29;99599.26;112809;1196;111190;-69
2021/09/29 03:53:28;;;;;;;24.40;11.10;;;;;;;7.00;65.58;99598.70;112829;1196;97689;-68
2021/09/29 03:55:56;;;;;;;26.20;12.00;;;;;;;7.01;65.55;99596.88;112854;1196;106749;-69
2021/09/29 03:58:24;;;;;;;24.10;11.30;;;;;;;7.01;65.40;99596.69;112817;1196;97579;-69
2021/09/29 04:00:52;;;;;;;24.90;10.80;;;;;;;7.02;65.60;99599.29;112833;1190;97609;-69
2021/09/29 04:03:21;;;;;;;24.00;11.20;;;;;;;7.02;65.51;99600.35;112833;1196;111689;-70
2021/09/29 04:05:50;;;;;;;24.50;11.30;;;;;;;7.03;65.47;99599.27;112838;1196;97672;-68
2021/09/29 04:08:18;;;;;;;26.70;12.70;;;;;;;7.03;65.60;99598.54;112739;1196;108101;-68
2021/09/29 04:10:46;;;;;;;24.90;11.80;;;;;;;7.03;65.82;99598.02;112714;1196;97646;-69
2021/09/29 04:13:13;;;;;;;27.20;12.10;;;;;;;7.05;65.66;99603.41;112671;1196;95189;-69
2021/09/29 04:15:41;;;;;;;25.20;11.80;;;;;;;7.06;65.61;99601.77;113053;1196;111745;-68
2021/09/29 04:18:09;;;;;;;24.60;10.80;;;;;;;7.06;65.72;99600.51;113120;1195;97572;-68
2021/09/29 04:20:39;;;;;;;24.70;11.90;;;;;;;7.08;65.66;99600.79;113073;1195;108156;-68
2021/09/29 04:23:09;;;;;;;22.90;11.10;;;;;;;7.08;65.71;99603.95;113077;1195;96106;-69
2021/09/29 04:25:39;;;;;;;25.70;10.60;;;;;;;7.08;65.78;99604.11;113143;1195;98357;-70
2021/09/29 04:28:08;;;;;;;24.70;12.40;;;;;;;7.09;65.77;99611.14;113087;1195;109917;-70
2021/09/29 04:30:36;;;;;;;25.80;11.70;;;;;;;7.10;65.95;99610.54;113141;1195;98230;-71
2021/09/29 04:33:04;;;;;;;25.40;11.70;;;;;;;7.12;65.90;99608.31;113189;1195;107724;-69
2021/09/29 04:35:32;;;;;;;25.60;13.10;;;;;;;7.13;65.85;99607.18;113108;1195;98259;-73
2021/09/29 04:38:00;;;;;;;24.50;12.50;;;;;;;7.17;66.25;99608.10;113145;1195;95091;-69
2021/09/29 04:40:28;;;;;;;26.70;12.90;;;;;;;7.19;66.02;99607.27;113162;1195;113865;-70
2021/09/29 04:42:56;;;;;;;29.80;12.10;;;;;;;7.22;66.14;99604.64;113201;1195;96139;-70
2021/09/29 04:45:24;;;;;;;27.20;13.40;;;;;;;7.25;66.28;99597.64;113158;1195;105812;-71
2021/09/29 04:47:52;;;;;;;26.50;12.40;;;;;;;7.28;66.19;99599.06;113129;1195;97605;-69
2021/09/29 04:50:20;;;;;;;24.80;12.40;;;;;;;7.32;66.23;99597.48;113135;1196;95126;-69
2021/09/29 04:52:48;;;;;;;26.30;12.10;;;;;;;7.34;66.21;99593.10;113127;1196;111226;-70
2021/09/29 04:55:16;;;;;;;26.90;11.80;;;;;;;7.38;66.25;99595.23;113170;1195;97547;-71
2021/09/29 04:57:44;;;;;;;25.40;11.60;;;;;;;7.42;66.20;99594.67;112812;1197;108446;-67
2021/09/29 05:00:13;;;;;;;25.40;12.30;;;;;;;7.45;66.36;99592.53;113110;1196;97710;-70
2021/09/29 05:02:45;;;;;;;24.70;12.50;;;;;;;7.49;66.29;99595.70;113196;1195;97572;-72
2021/09/29 05:05:13;;;;;;;26.00;12.30;;;;;;;7.55;66.63;99603.52;112992;1196;110234;-70
2021/09/29 05:07:47;;;;;;;23.90;10.90;;;;;;;7.59;66.55;99603.14;113060;1195;96445;-70
2021/09/29 05:10:25;;;;;;;30.60;12.90;;;;;;;7.63;66.55;99600.30;113655;1195;106539;-71
2021/09/29 05:12:59;;;;;;;24.50;11.70;;;;;;;7.67;66.48;99598.30;112983;1195;97623;-69
2021/09/29 05:15:27;;;;;;;25.40;11.40;;;;;;;7.71;66.50;99599.15;113105;1195;95779;-70
2021/09/29 05:17:55;;;;;;;24.90;11.50;;;;;;;7.76;66.75;99604.58;113199;1195;111232;-71
2021/09/29 05:20:25;;;;;;;25.20;12.30;;;;;;;7.80;66.67;99605.75;113157;1195;97703;-70
2021/09/29 05:22:53;;;;;;;25.00;11.50;;;;;;;7.85;66.70;99603.55;113092;1195;107544;-70
2021/09/29 05:25:23;;;;;;;29.30;13.90;;;;;;;7.90;66.81;99599.94;113101;1195;97702;-70
2021/09/29 05:27:53;;;;;;;30.10;13.10;;;;;;;7.95;66.78;99600.20;113192;1195;95224;-68
2021/09/29 05:30:22;;;;;;;26.70;12.20;;;;;;;7.99;66.64;99600.00;113223;1195;111187;-70
2021/09/29 05:32:50;;;;;;;26.80;12.90;;;;;;;8.03;66.94;99598.02;113209;1195;95203;-70
2021/09/29 05:35:18;;;;;;;25.10;12.30;;;;;;;8.07;66.81;99598.86;113163;1187;107522;-68
2021/09/29 05:37:47;;;;;;;27.30;12.80;;;;;;;8.12;67.07;99601.64;113208;1195;95452;-70
2021/09/29 05:40:15;;;;;;;26.40;12.00;;;;;;;8.16;66.85;99605.08;113188;1195;97578;-69
2021/09/29 05:42:44;;;;;;;25.90;12.90;;;;;;;8.21;66.99;99612.63;113151;1195;111649;-71
2021/09/29 05:45:13;;;;;;;27.40;12.50;;;;;;;8.25;67.07;99610.96;113256;1195;97576;-72
2021/09/29 05:47:41;;;;;;;26.10;12.70;;;;;;;8.30;66.98;99607.70;113246;1197;107514;-65
2021/09/29 05:50:12;;;;;;;25.00;12.00;;;;;;;8.35;67.12;99606.55;113191;1195;97608;-70
2021/09/29 05:52:40;;;;;;;27.40;12.70;;;;;;;8.40;67.11;99602.77;113141;1195;97554;-67
2021/09/29 05:55:10;;;;;;;26.80;11.80;;;;;;;8.45;66.98;99604.74;113146;1195;111207;-68
2021/09/29 05:57:38;;;;;;;26.90;12.80;;;;;;;8.51;67.17;99605.58;112925;1196;97539;-69
2021/09/29 06:00:08;;;;;;;28.60;13.70;;;;;;;8.56;66.99;99609.35;112893;1196;107520;-71
2021/09/29 06:02:36;;;;;;;30.10;16.20;;;;;;;8.61;67.15;99609.94;112835;1196;97706;-69
2021/09/29 06:05:07;;;;;;;31.80;16.00;;;;;;;8.66;67.09;99608.42;112859;1196;97674;-72
2021/09/29 06:07:36;;;;;;;31.90;16.90;;;;;;;8.72;67.15;99605.64;112709;1196;111122;-71
2021/09/29 06:10:06;;;;;;;28.60;14.90;;;;;;;8.76;67.16;99608.40;112943;1196;95093;-71
2021/09/29 06:12:41;;;;;;;27.70;13.60;;;;;;;8.79;67.15;99606.98;112695;1196;107511;-69
2021/09/29 06:15:19;;;;;;;26.10;13.10;;;;;;;8.83;67.25;99608.53;112735;1196;97650;-70
2021/09/29 06:17:56;;;;;;;24.70;13.00;;;;;;;8.87;67.28;99603.89;112716;1196;97616;-71
2021/09/29 06:20:31;;;;;;;31.50;12.00;;;;;;;8.91;67.27;99598.73;113183;1195;111196;-70
2021/09/29 06:23:02;;;;;;;25.10;12.20;;;;;;;8.95;67.34;99596.55;113205;1195;97660;-69
2021/09/29 06:25:30;;;;;;;28.70;12.60;;;;;;;8.98;67.37;99594.95;113147;1195;107625;-71
2021/09/29 06:27:57;;;;;;;24.90;11.80;;;;;;;9.03;67.58;99596.45;113140;1195;95061;-71
2021/09/29 06:30:25;;;;;;;27.10;13.10;;;;;;;9.07;67.33;99594.27;113050;1195;97643;-71
2021/09/29 06:32:53;;;;;;;28.60;12.70;;;;;;;9.09;67.41;99594.52;112836;1196;111671;-71
2021/09/29 06:35:30;;;;;;;25.50;12.50;;;;;;;9.11;67.37;99595.45;113194;1195;95381;-71
2021/09/29 06:38:02;;;;;;;25.10;12.40;;;;;;;9.15;67.41;99597.18;113102;1196;105766;-72
2021/09/29 06:40:30;;;;;;;25.50;11.80;;;;;;;9.19;67.59;99602.91;113184;1195;97482;-72
2021/09/29 06:42:58;;;;;;;54.80;35.10;;;;;;;9.25;67.50;99606.11;113185;1195;98294;-72
2021/09/29 06:45:27;;;;;;;32.20;15.70;;;;;;;9.31;67.51;99604.91;113137;1195;110988;-71
2021/09/29 06:47:57;;;;;;;28.80;13.60;;;;;;;9.35;67.61;99608.91;113130;1196;97997;-72
2021/09/29 06:50:26;;;;;;;27.60;13.30;;;;;;;9.40;67.56;99609.33;113089;1195;107533;-72
2021/09/29 06:52:59;;;;;;;28.20;13.10;;;;;;;9.44;67.70;99605.55;113091;1195;97572;-71
2021/09/29 06:55:27;;;;;;;27.50;11.90;;;;;;;9.46;67.64;99605.59;112865;1196;97766;-71
2021/09/29 06:57:55;;;;;;;26.80;13.60;;;;;;;9.48;67.52;99607.42;113082;1195;111011;-71
2021/09/29 07:00:25;;;;;;;26.50;13.30;;;;;;;9.51;67.68;99608.14;113206;1195;97771;-72
2021/09/29 07:02:54;;;;;;;27.80;13.40;;;;;;;9.53;67.65;99609.42;113121;1195;107521;-71
2021/09/29 07:05:24;;;;;;;42.80;22.80;;;;;;;9.58;67.69;99612.52;112866;1195;97709;-70
2021/09/29 07:07:56;;;;;;;42.40;21.20;;;;;;;9.62;67.81;99614.73;113072;1196;95157;-70
2021/09/29 07:10:24;;;;;;;29.20;13.90;;;;;;;9.67;67.71;99614.28;113164;1195;111203;-71
2021/09/29 07:12:54;;;;;;;30.00;13.10;;;;;;;9.71;67.78;99613.16;113195;1195;95135;-70
2021/09/29 07:15:27;;;;;;;27.70;13.80;;;;;;;9.74;67.80;99610.33;113156;1195;107853;-72
2021/09/29 07:17:57;;;;;;;25.60;13.40;;;;;;;9.78;67.85;99610.98;113090;1195;95189;-71
2021/09/29 07:20:28;;;;;;;;;;;;;;;9.83;67.95;99612.63;113226;1195;97604;-71
2021/09/29 07:22:59;;;;;;;27.60;13.00;;;;;;;9.86;67.92;99615.63;113109;1196;111144;-72
2021/09/29 07:25:30;;;;;;;26.40;13.10;;;;;;;9.91;67.90;99622.41;113109;1195;97737;-70
2021/09/29 07:27:59;;;;;;;29.00;14.20;;;;;;;9.95;67.97;99621.99;113054;1195;107525;-71
2021/09/29 07:30:27;;;;;;;28.60;14.60;;;;;;;10.00;67.86;99625.42;112983;1196;97605;-74
2021/09/29 07:33:03;;;;;;;31.20;14.60;;;;;;;10.04;67.87;99622.16;112965;1196;97767;-71
2021/09/29 07:35:39;;;;;;;30.80;15.00;;;;;;;10.08;67.98;99628.44;113158;1195;111194;-71
2021/09/29 07:38:11;;;;;;;26.10;13.40;;;;;;;10.11;67.90;99628.10;113158;1195;97641;-71
2021/09/29 07:40:42;;;;;;;28.20;13.50;;;;;;;10.16;67.97;99630.15;113142;1195;106589;-71
2021/09/29 07:43:13;;;;;;;31.80;14.30;;;;;;;10.19;67.94;99633.79;113145;1195;97582;-71
2021/09/29 07:45:41;;;;;;;31.40;13.90;;;;;;;10.24;68.03;99635.45;113186;1188;95005;-70
2021/09/29 07:48:09;;;;;;;31.70;14.40;;;;;;;10.30;68.04;99636.35;113197;1195;111228;-71
2021/09/29 07:50:42;;;;;;;27.10;13.90;;;;;;;10.34;68.01;99630.38;113224;1195;97607;-72
2021/09/29 07:53:15;;;;;;;30.00;14.40;;;;;;;10.39;68.16;99631.39;113193;1195;107534;-73
2021/09/29 07:55:43;;;;;;;38.10;15.00;;;;;;;10.44;68.04;99629.80;113086;1195;95770;-72
2021/09/29 07:58:11;;;;;;;30.60;13.80;;;;;;;10.49;68.07;99628.97;113142;1195;95085;-71
2021/09/29 08:00:38;;;;;;;30.00;14.60;;;;;;;10.58;68.13;99627.01;113100;1187;111109;-71
2021/09/29 08:03:07;;;;;;;27.80;13.30;;;;;;;10.67;68.17;99625.02;113128;1195;97623;-71
2021/09/29 08:05:35;;;;;;;28.90;14.00;;;;;;;10.76;68.25;99617.32;113121;1195;107382;-71
2021/09/29 08:08:04;;;;;;;27.00;13.70;;;;;;;10.86;68.23;99619.01;113082;1195;98184;-71
2021/09/29 08:10:32;;;;;;;45.30;26.00;;;;;;;10.95;68.23;99616.52;113093;1195;95155;-71
2021/09/29 08:13:00;;;;;;;31.80;14.20;;;;;;;11.02;68.21;99618.64;113160;1195;110920;-71
2021/09/29 08:15:29;;;;;;;26.30;13.00;;;;;;;11.11;68.19;99615.83;113137;1195;97624;-71
2021/09/29 08:17:57;;;;;;;29.60;14.30;;;;;;;11.19;68.30;99619.19;113105;1195;107546;-72
2021/09/29 08:20:28;;;;;;;27.50;13.20;;;;;;;11.27;68.28;99618.59;112964;1195;98205;-71
2021/09/29 08:23:20;;;;;;;28.20;12.60;;;;;;;11.37;68.31;99621.16;112905;1196;95857;-70
2021/09/29 08:36:24;;;;;;;23.60;10.90;;;;;;;11.69;68.30;99629.65;114045;1195;97657;-71
2021/09/29 08:38:57;;;;;;;24.50;12.10;;;;;;;11.80;68.32;99628.01;112987;1195;112298;-70
2021/09/29 08:44:06;;;;;;;25.50;11.40;;;;;;;11.95;68.17;99625.39;112862;1196;107320;-69
2021/09/29 09:16:36;;;;;;;27.60;13.00;;;;;;;12.55;68.20;99626.57;113115;1195;97685;-72
2021/09/29 09:19:11;;;;;;;24.50;11.60;;;;;;;12.57;68.04;99628.39;113114;1195;111176;-71
2021/09/29 09:21:54;;;;;;;24.10;9.80;;;;;;;12.57;68.04;99630.33;112703;1196;97556;-72
2021/09/29 09:24:31;;;;;;;23.00;11.00;;;;;;;12.55;68.02;99625.89;113105;1195;107501;-71
2021/09/29 09:27:11;;;;;;;24.70;11.50;;;;;;;12.49;68.07;99627.35;113156;1195;97556;-71
2021/09/29 09:29:54;;;;;;;22.30;9.30;;;;;;;12.51;68.06;99628.42;113172;1195;98418;-71
2021/09/29 09:32:24;;;;;;;23.00;10.80;;;;;;;12.53;68.06;99626.15;113100;1195;111563;-71
2021/09/29 09:35:05;;;;;;;21.70;10.00;;;;;;;12.54;68.04;99626.45;113089;1195;96494;-71
2021/09/29 09:37:33;;;;;;;23.80;12.00;;;;;;;12.62;68.12;99625.71;113089;1195;107676;-71
2021/09/29 09:40:16;;;;;;;24.10;11.60;;;;;;;12.68;68.09;99627.93;113139;1195;97576;-72
2021/09/29 09:42:48;;;;;;;24.90;11.70;;;;;;;12.65;67.95;99631.86;113110;1187;97566;-71
2021/09/29 09:45:19;;;;;;;23.30;10.80;;;;;;;12.63;67.99;99632.23;114789;1194;111250;-71
2021/09/29 09:47:47;;;;;;;24.60;11.50;;;;;;;12.69;68.03;99630.39;113039;1196;98396;-72
2021/09/29 09:50:29;;;;;;;24.90;12.40;;;;;;;12.76;68.02;99628.63;112852;1196;107586;-72
2021/09/29 09:52:57;;;;;;;27.50;13.40;;;;;;;12.82;68.05;99628.93;112786;1196;97780;-71
2021/09/29 09:55:27;;;;;;;23.40;11.00;;;;;;;12.89;68.04;99624.65;113173;1195;97667;-71
2021/09/29 09:57:57;;;;;;;24.20;11.30;;;;;;;12.92;67.87;99626.59;113103;1195;110827;-70
2021/09/29 10:00:28;;;;;;;23.10;11.30;;;;;;;12.88;67.67;99626.72;113046;1196;97626;-71
2021/09/29 10:02:56;;;;;;;23.20;11.60;;;;;;;12.83;67.62;99625.81;113077;1195;107540;-70
2021/09/29 10:05:28;;;;;;;21.80;10.40;;;;;;;12.81;67.65;99629.84;113065;1195;98287;-72
2021/09/29 10:08:02;;;;;;;23.50;10.20;;;;;;;12.82;67.69;99629.14;113152;1196;95038;-71
2021/09/29 10:28:14;;;;;;;24.80;11.10;;;;;;;13.21;67.68;99620.67;113155;1195;97633;-72
2021/09/29 10:34:12;;;;;;;23.60;10.70;;;;;;;13.29;67.39;99626.14;113165;1195;97585;-71
2021/09/29 11:05:24;;;;;;;23.50;9.80;;;;;;;13.93;67.37;99594.81;113095;1196;97667;-71
2021/09/29 11:11:00;;;;;;;23.90;10.20;;;;;;;14.15;67.34;99583.80;113086;1195;97654;-71
2021/09/29 11:33:46;;;;;;;29.50;13.50;;;;;;;15.79;67.21;99557.30;112666;1197;97629;-73
2021/09/29 11:37:18;;;;;;;21.70;10.10;;;;;;;15.88;67.06;99560.09;113001;1197;111168;-72
2021/09/29 12:07:56;;;;;;;20.90;8.80;;;;;;;16.37;67.03;99561.42;113037;1196;109812;-72
2021/09/29 12:12:31;;;;;;;22.50;9.50;;;;;;;16.75;65.86;99546.52;112983;1196;97608;-73
2021/09/29 12:15:07;;;;;;;21.10;9.60;;;;;;;16.80;65.59;99552.23;113146;1196;97570;-72
2021/09/29 12:17:40;;;;;;;20.30;8.30;;;;;;;16.80;65.69;99553.92;112703;1196;109373;-72
2021/09/29 12:20:25;;;;;;;25.80;10.10;;;;;;;16.89;65.58;99551.19;112986;1197;97672;-71
2021/09/29 12:23:03;;;;;;;20.40;8.90;;;;;;;16.89;65.32;99556.63;113129;1195;107531;-71
2021/09/29 12:28:24;;;;;;;21.60;9.90;;;;;;;16.79;63.35;99561.26;113166;1196;97549;-71
2021/09/29 12:31:26;;;;;;;20.50;8.20;;;;;;;16.46;63.34;99556.34;112685;1196;110222;-70
2021/09/29 12:36:33;;;;;;;21.40;8.50;;;;;;;16.28;62.77;99552.04;113194;1196;107529;-73
2021/09/29 12:39:19;;;;;;;21.10;9.20;;;;;;;16.26;62.71;99543.23;113092;1195;98398;-72
2021/09/29 12:41:52;;;;;;;20.80;9.20;;;;;;;16.39;62.91;99540.13;113135;1196;97693;-71
2021/09/29 12:44:20;;;;;;;19.80;8.90;;;;;;;16.62;63.11;99542.55;113149;1195;111225;-71
2021/09/29 12:47:16;;;;;;;20.60;8.80;;;;;;;16.84;62.72;99544.68;113185;1195;97578;-72
2021/09/29 12:49:48;;;;;;;23.80;8.60;;;;;;;17.07;61.93;99540.48;113122;1196;107483;-72
2021/09/29 12:52:36;;;;;;;20.10;8.80;;;;;;;17.18;61.74;99541.20;113013;1195;97643;-71
2021/09/29 12:55:11;;;;;;;20.30;8.60;;;;;;;17.28;61.00;99546.27;113146;1195;95707;-73
2021/09/29 12:57:44;;;;;;;22.60;8.60;;;;;;;17.21;60.44;99541.45;113070;1196;111096;-72
2021/09/29 13:00:17;;;;;;;27.40;13.60;;;;;;;17.13;60.67;99541.14;113131;1197;95719;-70
2021/09/29 13:02:45;;;;;;;20.00;8.50;;;;;;;17.18;60.91;99537.70;113163;1196;105566;-71
2021/09/29 13:05:17;;;;;;;17.50;7.20;;;;;;;17.22;61.29;99536.41;113202;1195;97651;-72
2021/09/29 13:07:45;;;;;;;22.20;8.20;;;;;;;17.19;60.17;99533.04;113180;1195;95135;-72
2021/09/29 13:10:13;;;;;;;18.80;7.70;;;;;;;17.15;60.72;99532.38;112895;1195;111227;-71
2021/09/29 13:12:46;;;;;;;19.90;7.80;;;;;;;17.16;60.80;99534.30;113002;1195;98385;-70
2021/09/29 13:15:14;;;;;;;18.70;7.50;;;;;;;17.14;60.83;99537.10;113124;1196;108736;-71
2021/09/29 13:17:44;;;;;;;20.50;8.10;;;;;;;17.10;60.36;99541.44;113099;1196;96049;-69
2021/09/29 13:20:29;;;;;;;21.70;8.60;;;;;;;17.00;60.52;99542.55;113122;1196;95019;-69
2021/09/29 13:23:10;;;;;;;16.40;7.10;;;;;;;17.02;60.86;99538.98;113090;1188;111186;-70
2021/09/29 13:36:42;;;;;;;18.00;7.10;;;;;;;17.16;58.82;99536.62;113024;1195;111246;-72
2021/09/29 13:39:16;;;;;;;18.70;7.10;;;;;;;17.20;58.92;99532.66;113115;1195;97633;-73
2021/09/29 13:41:47;;;;;;;21.70;8.60;;;;;;;17.28;59.12;99533.67;113161;1195;107387;-76
2021/09/29 13:44:16;;;;;;;21.50;8.90;;;;;;;17.39;59.17;99530.36;113002;1196;97667;-72
2021/09/29 13:46:46;;;;;;;20.80;7.60;;;;;;;17.50;59.38;99523.61;113148;1195;97545;-73
2021/09/29 13:49:15;;;;;;;18.10;7.60;;;;;;;17.61;58.58;99522.92;113060;1196;111622;-73
2021/09/29 13:51:45;;;;;;;16.40;7.00;;;;;;;17.50;58.85;99530.41;113207;1195;97653;-74
2021/09/29 13:54:31;;;;;;;18.20;6.80;;;;;;;17.50;58.64;99530.94;113185;1195;107534;-73
2021/09/29 14:30:07;;;;;;;20.00;7.70;;;;;;;16.71;58.64;99530.11;113254;1195;110445;-71
2021/09/29 14:32:31;;;;;;;16.60;7.30;;;;;;;16.63;58.45;99528.40;113187;1195;97744;-68
2021/09/29 14:34:59;;;;;;;19.50;8.40;;;;;;;16.60;58.58;99530.92;113158;1195;107648;-71
2021/09/29 14:37:27;;;;;;;19.60;7.50;;;;;;;16.57;58.64;99529.22;113202;1195;96931;-71
2021/09/29 14:39:55;;;;;;;18.60;7.60;;;;;;;16.45;58.40;99530.96;113150;1195;98023;-71
2021/09/29 14:42:22;;;;;;;19.40;8.40;;;;;;;16.39;58.61;99526.86;113133;1195;110822;-71
2021/09/29 14:44:50;;;;;;;17.90;8.20;;;;;;;16.36;58.52;99531.64;113197;1196;97544;-70
2021/09/29 14:47:18;;;;;;;20.30;8.70;;;;;;;16.32;58.85;99530.38;113173;1196;107509;-70